createdAt,value
2018-08-23T00:00:33.284Z,50.55
2018-08-23T00:01:33.167Z,50.3
2018-08-23T00:02:33.129Z,50.79
2018-08-23T00:03:33.417Z,50.74
2018-08-23T00:04:33.279Z,50.16
2018-08-23T00:05:33.110Z,49.73
2018-08-23T00:06:33.127Z,50.78
2018-08-23T00:07:33.238Z,50.98
2018-08-23T00:08:33.278Z,50.27
2018-08-23T00:09:33.415Z,50.61
2018-08-23T00:10:33.248Z,50.69
2018-08-23T00:11:33.178Z,50.77
2018-08-23T00:12:33.158Z,50.77
2018-08-23T00:13:33.212Z,51.02
2018-08-23T00:14:33.165Z,51.09
2018-08-23T00:15:33.259Z,51.35
2018-08-23T00:16:33.356Z,50.9
2018-08-23T00:17:33.440Z,51.43
2018-08-23T00:18:33.165Z,52.17
2018-08-23T00:19:33.282Z,51.89
2018-08-23T00:20:33.467Z,51.04
2018-08-23T00:21:33.238Z,51.31
2018-08-23T00:22:33.202Z,52.23
2018-08-23T00:23:33.591Z,51.95
2018-08-23T00:24:33.241Z,52.62
2018-08-23T00:25:33.155Z,51.94
2018-08-23T00:26:33.309Z,52.11
2018-08-23T00:27:33.323Z,51.89
2018-08-23T00:28:33.261Z,52.06
2018-08-23T00:29:33.160Z,52.2
2018-08-23T00:30:33.304Z,53.07
2018-08-23T00:31:33.257Z,52.36
2018-08-23T00:32:33.165Z,51.94
2018-08-23T00:33:33.414Z,51.98
2018-08-23T00:34:33.354Z,52.66
2018-08-23T00:35:33.175Z,52.42
2018-08-23T00:36:33.154Z,52.64
2018-08-23T00:37:33.242Z,52.58
2018-08-23T00:38:33.181Z,52.59
2018-08-23T00:39:33.304Z,52.81
2018-08-23T00:40:33.164Z,53.15
2018-08-23T00:41:33.321Z,52.49
2018-08-23T00:42:33.228Z,53.29
2018-08-23T00:43:33.203Z,53.3
2018-08-23T00:44:33.173Z,53.28
2018-08-23T00:45:33.156Z,52.45
2018-08-23T00:46:33.456Z,52.98
2018-08-23T00:47:33.205Z,52.53
2018-08-23T00:48:33.175Z,52.43
2018-08-23T00:49:33.191Z,52.51
2018-08-23T00:50:33.225Z,52.14
2018-08-23T00:51:33.181Z,52.1
2018-08-23T00:52:33.198Z,52.39
2018-08-23T00:53:33.207Z,52.71
2018-08-23T00:54:33.181Z,52.56
2018-08-23T00:55:33.188Z,52.88
2018-08-23T00:56:33.229Z,52.85
2018-08-23T00:57:33.264Z,52.95
2018-08-23T00:58:33.210Z,53.34
2018-08-23T00:59:33.214Z,52.96
2018-08-23T01:00:33.274Z,53.1
2018-08-23T01:01:33.209Z,53.28
2018-08-23T01:02:33.176Z,52.95
2018-08-23T01:03:33.193Z,52.59
2018-08-23T01:04:33.210Z,52.39
2018-08-23T01:05:33.220Z,52.55
2018-08-23T01:06:33.367Z,53.23
2018-08-23T01:07:33.182Z,52.56
2018-08-23T01:08:33.197Z,52.32
2018-08-23T01:09:33.225Z,52.76
2018-08-23T01:10:33.193Z,52.59
2018-08-23T01:11:33.319Z,52.56
2018-08-23T01:12:33.246Z,52.33
2018-08-23T01:13:33.257Z,52.72
2018-08-23T01:14:33.211Z,52.83
2018-08-23T01:15:33.227Z,53.42
2018-08-23T01:16:33.248Z,53.12
2018-08-23T01:17:33.369Z,52.96
2018-08-23T01:18:33.318Z,53.33
2018-08-23T01:19:33.535Z,52.68
2018-08-23T01:20:33.262Z,52.91
2018-08-23T01:21:33.352Z,53.03
2018-08-23T01:22:33.256Z,53.12
2018-08-23T01:23:33.258Z,53.11
2018-08-23T01:24:33.376Z,52.96
2018-08-23T01:25:33.365Z,53.2
2018-08-23T01:26:33.310Z,52.99
2018-08-23T01:27:33.224Z,52.97
2018-08-23T01:28:33.217Z,53.52
2018-08-23T01:29:33.237Z,53.55
2018-08-23T01:30:33.257Z,53.96
2018-08-23T01:31:33.312Z,53.77
2018-08-23T01:32:33.239Z,53.32
2018-08-23T01:33:33.298Z,53.86
2018-08-23T01:34:33.228Z,54.01
2018-08-23T01:35:33.380Z,54.03
2018-08-23T01:36:33.287Z,54.5
2018-08-23T01:37:33.282Z,54.24
2018-08-23T01:38:33.339Z,54.81
2018-08-23T01:39:33.362Z,54.86
2018-08-23T01:40:33.342Z,54.72
2018-08-23T01:41:33.243Z,55.16
2018-08-23T01:42:33.541Z,55.44
2018-08-23T01:43:33.308Z,55.46
2018-08-23T01:44:33.248Z,54.81
2018-08-23T01:45:33.247Z,55
2018-08-23T01:46:33.367Z,55.33
2018-08-23T01:47:33.328Z,55.61
2018-08-23T01:48:33.373Z,55.03
2018-08-23T01:49:33.456Z,54.37
2018-08-23T01:50:33.293Z,54.71
2018-08-23T01:51:33.305Z,54.83
2018-08-23T01:52:33.325Z,55.43
2018-08-23T01:53:33.313Z,56.08
2018-08-23T01:54:33.410Z,56.34
2018-08-23T01:55:33.317Z,56.37
2018-08-23T01:56:33.271Z,56.14
2018-08-23T01:57:33.429Z,56.21
2018-08-23T01:58:33.287Z,56.29
2018-08-23T01:59:33.494Z,56.52
2018-08-23T02:00:33.344Z,56.28
2018-08-23T02:01:33.323Z,56.78
2018-08-23T02:02:33.260Z,56.53
2018-08-23T02:03:33.320Z,56.07
2018-08-23T02:04:33.270Z,56.56
2018-08-23T02:05:33.349Z,56.83
2018-08-23T02:06:33.385Z,56.73
2018-08-23T02:07:33.303Z,56.87
2018-08-23T02:08:33.361Z,56.71
2018-08-23T02:09:33.309Z,56.68
2018-08-23T02:10:33.271Z,57.04
2018-08-23T02:11:33.330Z,56.75
2018-08-23T02:12:33.276Z,57.27
2018-08-23T02:13:33.307Z,57
2018-08-23T02:14:33.350Z,56.86
2018-08-23T02:15:33.297Z,56.05
2018-08-23T02:16:33.324Z,57
2018-08-23T02:17:33.320Z,56.14
2018-08-23T02:18:33.284Z,56.04
2018-08-23T02:19:33.380Z,56.15
2018-08-23T02:20:33.293Z,56.77
2018-08-23T02:21:33.301Z,56.41
2018-08-23T02:22:33.289Z,56.3
2018-08-23T02:23:33.316Z,57.45
2018-08-23T02:24:33.312Z,57.36
2018-08-23T02:25:33.403Z,57.27
2018-08-23T02:26:33.293Z,57.02
2018-08-23T02:27:33.312Z,57.14
2018-08-23T02:28:33.292Z,56.34
2018-08-23T02:29:33.301Z,56.87
2018-08-23T02:30:33.314Z,57.43
2018-08-23T02:31:33.338Z,57.5
2018-08-23T02:32:33.329Z,57.6
2018-08-23T02:33:33.440Z,57.6
2018-08-23T02:34:33.361Z,57.61
2018-08-23T02:35:33.313Z,57.33
2018-08-23T02:36:33.554Z,57.7
2018-08-23T02:37:33.399Z,56.74
2018-08-23T02:38:33.316Z,56.3
2018-08-23T02:39:33.301Z,56.55
2018-08-23T02:40:33.337Z,57.39
2018-08-23T02:41:33.347Z,56.51
2018-08-23T02:42:33.355Z,57.33
2018-08-23T02:43:33.434Z,57.02
2018-08-23T02:44:33.551Z,57.31
2018-08-23T02:45:33.375Z,57.7
2018-08-23T02:46:34.220Z,57.73
2018-08-23T02:47:33.453Z,58.05
2018-08-23T02:48:33.464Z,58.07
2018-08-23T02:49:33.492Z,57.97
2018-08-23T02:50:33.687Z,57.83
2018-08-23T02:51:33.502Z,57.19
2018-08-23T02:52:33.416Z,58.09
2018-08-23T02:53:33.362Z,57.88
2018-08-23T02:54:33.399Z,58.31
2018-08-23T02:55:33.448Z,57.48
2018-08-23T02:56:33.514Z,56.96
2018-08-23T02:57:33.644Z,57.21
2018-08-23T02:58:33.363Z,57.8
2018-08-23T02:59:33.455Z,57.41
2018-08-23T03:00:33.655Z,57.02
2018-08-23T03:01:33.378Z,57.46
2018-08-23T03:02:33.512Z,58
2018-08-23T03:03:33.343Z,58.11
2018-08-23T03:04:33.774Z,57.51
2018-08-23T03:05:33.450Z,58.39
2018-08-23T03:06:33.380Z,57.99
2018-08-23T03:07:33.691Z,57.91
2018-08-23T03:08:33.414Z,58.45
2018-08-23T03:09:33.453Z,58.52
2018-08-23T03:10:33.377Z,57.65
2018-08-23T03:11:33.384Z,58.38
2018-08-23T03:12:33.391Z,58.54
2018-08-23T03:13:33.384Z,57.63
2018-08-23T03:14:33.401Z,57.5
2018-08-23T03:15:33.416Z,57.83
2018-08-23T03:16:33.508Z,58.72
2018-08-23T03:17:33.382Z,57.87
2018-08-23T03:18:33.379Z,58.37
2018-08-23T03:19:33.491Z,59.1
2018-08-23T03:20:33.431Z,58.97
2018-08-23T03:21:33.395Z,59.04
2018-08-23T03:22:33.428Z,59.18
2018-08-23T03:23:33.415Z,59.21
2018-08-23T03:24:33.784Z,59.26
2018-08-23T03:25:33.393Z,58.87
2018-08-23T03:26:33.395Z,59.41
2018-08-23T03:27:33.388Z,58.41
2018-08-23T03:28:33.441Z,58.3
2018-08-23T03:29:33.823Z,58.36
2018-08-23T03:30:33.418Z,59.12
2018-08-23T03:31:33.558Z,59.4
2018-08-23T03:32:33.399Z,59.54
2018-08-23T03:33:33.403Z,59.49
2018-08-23T03:34:33.731Z,59.57
2018-08-23T03:35:33.410Z,59.37
2018-08-23T03:36:33.497Z,59.44
2018-08-23T03:37:33.417Z,59.1
2018-08-23T03:38:33.404Z,59.25
2018-08-23T03:39:33.401Z,58.61
2018-08-23T03:40:33.402Z,59.6
2018-08-23T03:41:33.405Z,59.27
2018-08-23T03:42:33.428Z,59.32
2018-08-23T03:43:33.421Z,59.21
2018-08-23T03:44:33.430Z,59.59
2018-08-23T03:45:33.406Z,58.62
2018-08-23T03:46:33.393Z,59.39
2018-08-23T03:47:33.418Z,59.07
2018-08-23T03:48:33.427Z,59.54
2018-08-23T03:49:33.394Z,58.74
2018-08-23T03:50:33.476Z,59.12
2018-08-23T03:51:33.488Z,59.72
2018-08-23T03:52:34.143Z,59.88
2018-08-23T03:53:33.484Z,59.64
2018-08-23T03:54:33.446Z,59.83
2018-08-23T03:55:33.503Z,60.02
2018-08-23T03:56:33.829Z,59.92
2018-08-23T03:57:33.413Z,59.84
2018-08-23T03:58:33.412Z,59.93
2018-08-23T03:59:33.562Z,60.18
2018-08-23T04:00:33.434Z,60.24
2018-08-23T04:01:33.510Z,60.04
2018-08-23T04:02:33.498Z,60.11
2018-08-23T04:03:33.461Z,59.88
2018-08-23T04:04:33.470Z,60.01
2018-08-23T04:05:33.468Z,60.41
2018-08-23T04:06:33.448Z,60.61
2018-08-23T04:07:33.479Z,60.86
2018-08-23T04:08:33.478Z,61.1
2018-08-23T04:09:33.494Z,60.91
2018-08-23T04:10:33.679Z,60.79
2018-08-23T04:11:33.502Z,60.79
2018-08-23T04:12:33.505Z,61.17
2018-08-23T04:13:33.464Z,61.1
2018-08-23T04:14:33.466Z,61.1
2018-08-23T04:15:33.492Z,61.23
2018-08-23T04:16:33.439Z,60.97
2018-08-23T04:17:33.516Z,60.62
2018-08-23T04:18:33.444Z,60.68
2018-08-23T04:19:33.520Z,60.46
2018-08-23T04:20:33.457Z,60.01
2018-08-23T04:21:33.466Z,60.49
2018-08-23T04:22:33.549Z,60.04
2018-08-23T04:23:33.474Z,60
2018-08-23T04:24:33.460Z,60.2
2018-08-23T04:25:33.476Z,59.79
2018-08-23T04:26:33.471Z,60.17
2018-08-23T04:27:34.105Z,60.5
2018-08-23T04:28:33.503Z,59.77
2018-08-23T04:29:33.549Z,59.45
2018-08-23T04:30:33.444Z,59.6
2018-08-23T04:31:33.645Z,60.31
2018-08-23T04:32:33.481Z,60.67
2018-08-23T04:33:33.485Z,61.03
2018-08-23T04:34:33.660Z,60.86
2018-08-23T04:35:33.469Z,60.87
2018-08-23T04:36:33.612Z,60.69
2018-08-23T04:37:33.660Z,60.17
2018-08-23T04:38:33.519Z,60.3
2018-08-23T04:39:33.722Z,60.4
2018-08-23T04:40:33.543Z,61.24
2018-08-23T04:41:33.621Z,61.43
2018-08-23T04:42:33.750Z,61.78
2018-08-23T04:43:33.762Z,61.61
2018-08-23T04:44:33.539Z,61.72
2018-08-23T04:45:33.617Z,61.05
2018-08-23T04:46:33.784Z,61.79
2018-08-23T04:47:34.142Z,61.62
2018-08-23T04:48:33.698Z,61.07
2018-08-23T04:49:33.765Z,61.5
2018-08-23T04:50:33.537Z,61.39
2018-08-23T04:51:33.652Z,61.16
2018-08-23T04:52:33.527Z,60.7
2018-08-23T04:53:33.499Z,61.24
2018-08-23T04:54:33.579Z,61.65
2018-08-23T04:55:33.640Z,61.7
2018-08-23T04:56:33.530Z,61.43
2018-08-23T04:57:33.573Z,61.7
2018-08-23T04:58:33.550Z,61.62
2018-08-23T04:59:33.540Z,61.5
2018-08-23T05:00:33.611Z,61.59
2018-08-23T05:01:33.669Z,61.04
2018-08-23T05:02:33.625Z,60.87
2018-08-23T05:03:33.537Z,61
2018-08-23T05:04:34.358Z,61.57
2018-08-23T05:05:33.610Z,61.95
2018-08-23T05:06:33.574Z,62.02
2018-08-23T05:07:33.572Z,62.28
2018-08-23T05:08:34.137Z,62.37
2018-08-23T05:09:33.631Z,62.33
2018-08-23T05:10:33.589Z,62.26
2018-08-23T05:11:33.602Z,62.28
2018-08-23T05:12:33.577Z,62.09
2018-08-23T05:13:33.744Z,62.87
2018-08-23T05:14:33.793Z,63.07
2018-08-23T05:15:33.767Z,63.49
2018-08-23T05:16:33.549Z,63.25
2018-08-23T05:17:33.683Z,63.1
2018-08-23T05:18:33.718Z,63
2018-08-23T05:19:34.525Z,62.73
2018-08-23T05:20:33.609Z,62.66
2018-08-23T05:21:34.319Z,62.62
2018-08-23T05:22:33.617Z,62.42
2018-08-23T05:23:33.645Z,62.59
2018-08-23T05:24:33.801Z,63.08
2018-08-23T05:25:33.687Z,63.04
2018-08-23T05:26:33.572Z,62.87
2018-08-23T05:27:33.771Z,62.9
2018-08-23T05:28:33.627Z,62.77
2018-08-23T05:29:33.601Z,62.72
2018-08-23T05:30:33.637Z,62.79
2018-08-23T05:31:33.923Z,62.34
2018-08-23T05:32:33.806Z,62.71
2018-08-23T05:33:33.579Z,62.15
2018-08-23T05:34:33.597Z,62.53
2018-08-23T05:35:33.889Z,62.48
2018-08-23T05:36:33.571Z,62.71
2018-08-23T05:37:34.238Z,62.99
2018-08-23T05:38:33.704Z,62.93
2018-08-23T05:39:33.780Z,62.65
2018-08-23T05:40:33.727Z,63
2018-08-23T05:41:33.590Z,63.37
2018-08-23T05:42:33.623Z,62.61
2018-08-23T05:43:34.468Z,63.33
2018-08-23T05:44:33.765Z,62.72
2018-08-23T05:45:33.567Z,62.46
2018-08-23T05:46:33.665Z,63.02
2018-08-23T05:47:33.777Z,62.7
2018-08-23T05:48:34.041Z,63.66
2018-08-23T05:49:33.802Z,63.91
2018-08-23T05:50:34.388Z,63.85
2018-08-23T05:51:33.653Z,64.17
2018-08-23T05:52:33.794Z,63.77
2018-08-23T05:53:33.742Z,63.65
2018-08-23T05:54:34.065Z,64.59
2018-08-23T05:55:33.788Z,63.45
2018-08-23T05:56:33.786Z,64.18
2018-08-23T05:57:33.646Z,63.78
2018-08-23T05:58:33.626Z,63.42
2018-08-23T05:59:33.908Z,63.49
2018-08-23T06:00:33.805Z,64.04
2018-08-23T06:01:33.632Z,63.48
2018-08-23T06:02:33.715Z,63.72
2018-08-23T06:03:33.603Z,63.92
2018-08-23T06:04:33.620Z,63.51
2018-08-23T06:05:33.588Z,63.79
2018-08-23T06:06:33.659Z,63.66
2018-08-23T06:07:34.014Z,63.15
2018-08-23T06:08:33.644Z,63.68
2018-08-23T06:09:33.744Z,63.62
2018-08-23T06:10:33.725Z,64.08
2018-08-23T06:11:33.570Z,63.58
2018-08-23T06:12:33.651Z,63.58
2018-08-23T06:13:33.584Z,63.78
2018-08-23T06:14:33.574Z,63.22
2018-08-23T06:15:33.696Z,63.52
2018-08-23T06:16:33.594Z,63.41
2018-08-23T06:17:33.725Z,62.98
2018-08-23T06:18:33.757Z,62.76
2018-08-23T06:19:33.621Z,62.93
2018-08-23T06:20:33.607Z,62.19
2018-08-23T06:21:33.609Z,62.72
2018-08-23T06:22:33.683Z,62.1
2018-08-23T06:23:33.638Z,61.74
2018-08-23T06:24:33.631Z,61.69
2018-08-23T06:25:33.584Z,62.47
2018-08-23T06:26:33.848Z,63.29
2018-08-23T06:27:34.532Z,63.08
2018-08-23T06:28:33.583Z,63.11
2018-08-23T06:29:33.641Z,62.46
2018-08-23T06:30:34.708Z,62.57
2018-08-23T06:31:34.186Z,62.63
2018-08-23T06:32:33.662Z,62.44
2018-08-23T06:33:35.322Z,62.93
2018-08-23T06:34:33.644Z,62.46
2018-08-23T06:35:33.767Z,63.06
2018-08-23T06:36:33.762Z,63.13
2018-08-23T06:37:33.931Z,63.01
2018-08-23T06:38:40.159Z,63.73
2018-08-23T06:39:33.773Z,63.36
2018-08-23T06:40:33.947Z,62.69
2018-08-23T06:41:33.619Z,63.36
2018-08-23T06:42:33.735Z,63.43
2018-08-23T06:43:33.957Z,63.39
2018-08-23T06:44:34.121Z,62.71
2018-08-23T06:45:33.736Z,62.5
2018-08-23T06:46:33.744Z,62.85
2018-08-23T06:47:33.778Z,63.05
2018-08-23T06:48:33.979Z,62.6
2018-08-23T06:49:34.292Z,63.33
2018-08-23T06:50:34.002Z,62.69
2018-08-23T06:51:33.763Z,62.83
2018-08-23T06:52:33.641Z,62.3
2018-08-23T06:53:33.636Z,62.58
2018-08-23T06:54:33.729Z,62.5
2018-08-23T06:55:33.701Z,62.49
2018-08-23T06:56:33.746Z,62.47
2018-08-23T06:57:33.998Z,62.48
2018-08-23T06:58:33.677Z,62.5
2018-08-23T06:59:33.656Z,62.22
2018-08-23T07:00:33.664Z,62.25
2018-08-23T07:01:33.709Z,61.72
2018-08-23T07:02:33.674Z,61.66
2018-08-23T07:03:33.989Z,61.34
2018-08-23T07:04:33.707Z,61.85
2018-08-23T07:05:34.301Z,62.18
2018-08-23T07:06:33.867Z,61.19
2018-08-23T07:07:33.804Z,61.38
2018-08-23T07:08:33.751Z,61.66
2018-08-23T07:09:33.665Z,61.5
2018-08-23T07:10:33.961Z,60.75
2018-08-23T07:11:33.860Z,61.01
2018-08-23T07:12:33.733Z,60.93
2018-08-23T07:13:33.710Z,61.24
2018-08-23T07:14:33.677Z,60.5
2018-08-23T07:15:33.733Z,61.06
2018-08-23T07:16:33.777Z,61.07
2018-08-23T07:17:34.375Z,60.62
2018-08-23T07:18:33.748Z,60.08
2018-08-23T07:19:33.724Z,60.74
2018-08-23T07:20:33.746Z,59.96
2018-08-23T07:21:33.708Z,60.51
2018-08-23T07:22:34.129Z,60.93
2018-08-23T07:23:33.779Z,60.74
2018-08-23T07:24:34.031Z,60.6
2018-08-23T07:25:33.784Z,60.74
2018-08-23T07:26:33.873Z,60.2
2018-08-23T07:27:33.774Z,60.4
2018-08-23T07:28:33.721Z,60.62
2018-08-23T07:29:33.721Z,59.71
2018-08-23T07:30:33.699Z,60.27
2018-08-23T07:31:33.694Z,59.77
2018-08-23T07:32:34.821Z,59.92
2018-08-23T07:33:35.343Z,59.74
2018-08-23T07:34:33.712Z,59.42
2018-08-23T07:35:34.248Z,59.7
2018-08-23T07:36:33.706Z,59.44
2018-08-23T07:37:33.672Z,59.41
2018-08-23T07:38:33.688Z,59.52
2018-08-23T07:39:36.040Z,58.99
2018-08-23T07:40:33.725Z,58.97
2018-08-23T07:41:33.676Z,59.15
2018-08-23T07:42:35.306Z,58.86
2018-08-23T07:43:33.787Z,59.08
2018-08-23T07:44:33.798Z,58.54
2018-08-23T07:45:34.254Z,58.61
2018-08-23T07:46:33.720Z,58.66
2018-08-23T07:47:33.803Z,58.52
2018-08-23T07:48:34.128Z,58.75
2018-08-23T07:49:36.104Z,58.11
2018-08-23T07:50:33.738Z,58.1
2018-08-23T07:51:33.713Z,57.7
2018-08-23T07:52:34.289Z,57.62
2018-08-23T07:53:33.714Z,57.77
2018-08-23T07:54:33.804Z,57.68
2018-08-23T07:55:33.738Z,57.58
2018-08-23T07:56:35.182Z,57.9
2018-08-23T07:57:33.815Z,57.85
2018-08-23T07:58:33.728Z,57.72
2018-08-23T07:59:33.700Z,57.86
2018-08-23T08:00:33.995Z,57.67
2018-08-23T08:01:35.363Z,57.89
2018-08-23T08:02:33.764Z,57.6
2018-08-23T08:03:33.853Z,57.91
2018-08-23T08:04:34.081Z,57.94
2018-08-23T08:05:33.730Z,57.76
2018-08-23T08:06:33.728Z,57.58
2018-08-23T08:07:33.777Z,57.19
2018-08-23T08:08:33.911Z,57.44
2018-08-23T08:09:33.735Z,57.53
2018-08-23T08:10:34.445Z,57.2
2018-08-23T08:11:33.728Z,57.12
2018-08-23T08:12:33.721Z,56.91
2018-08-23T08:13:33.736Z,57.4
2018-08-23T08:14:33.765Z,57.12
2018-08-23T08:15:33.984Z,57.04
2018-08-23T08:16:34.054Z,57.59
2018-08-23T08:17:34.101Z,57.89
2018-08-23T08:18:34.067Z,57.7
2018-08-23T08:19:33.873Z,57.78
2018-08-23T08:20:33.879Z,57.61
2018-08-23T08:21:34.278Z,57.83
2018-08-23T08:22:33.748Z,57.44
2018-08-23T08:23:33.912Z,57.38
2018-08-23T08:24:33.737Z,57.28
2018-08-23T08:25:33.927Z,57.24
2018-08-23T08:26:33.939Z,57.37
2018-08-23T08:27:34.029Z,57.14
2018-08-23T08:28:33.939Z,57.11
2018-08-23T08:29:33.931Z,56.84
2018-08-23T08:30:34.070Z,56.72
2018-08-23T08:31:33.954Z,56.96
2018-08-23T08:32:34.249Z,56.8
2018-08-23T08:33:34.116Z,56.72
2018-08-23T08:34:34.487Z,56.46
2018-08-23T08:35:34.052Z,55.81
2018-08-23T08:36:34.083Z,56.09
2018-08-23T08:37:35.941Z,55.92
2018-08-23T08:38:34.012Z,56.04
2018-08-23T08:39:34.015Z,56.03
2018-08-23T08:40:34.007Z,55.74
2018-08-23T08:41:33.921Z,56.08
2018-08-23T08:42:34.138Z,55.37
2018-08-23T08:43:34.160Z,53.35
2018-08-23T08:44:33.845Z,53.64
2018-08-23T08:45:34.218Z,53.87
2018-08-23T08:46:34.061Z,53.8
2018-08-23T08:47:34.326Z,53.99
2018-08-23T08:48:34.561Z,53.79
2018-08-23T08:49:33.948Z,52.63
2018-08-23T08:50:34.619Z,52.65
2018-08-23T08:51:35.122Z,51.73
2018-08-23T08:52:33.997Z,52.11
2018-08-23T08:53:34.011Z,52.02
2018-08-23T08:54:33.918Z,52
2018-08-23T08:55:33.908Z,52.17
2018-08-23T08:56:33.826Z,52.01
2018-08-23T08:57:34.604Z,51.38
2018-08-23T08:58:33.936Z,52.29
2018-08-23T08:59:34.046Z,52.08
2018-08-23T09:00:33.951Z,51.5
2018-08-23T09:01:33.960Z,51.91
2018-08-23T09:02:33.865Z,51.38
2018-08-23T09:03:33.870Z,51.13
2018-08-23T09:04:34.141Z,51.19
2018-08-23T09:05:33.988Z,50.87
2018-08-23T09:06:34.073Z,51.21
2018-08-23T09:07:33.817Z,50.95
2018-08-23T09:08:33.908Z,50.97
2018-08-23T09:09:34.065Z,50.59
2018-08-23T09:10:33.812Z,50.21
2018-08-23T09:11:33.937Z,50.29
2018-08-23T09:12:33.898Z,50.03
2018-08-23T09:13:33.866Z,50.45
2018-08-23T09:14:34.675Z,50
2018-08-23T09:15:35.218Z,50.24
2018-08-23T09:16:34.030Z,49.86
2018-08-23T09:17:33.852Z,50.02
2018-08-23T09:18:34.407Z,50.3
2018-08-23T09:19:34.651Z,50.54
2018-08-23T09:20:34.506Z,50.2
2018-08-23T09:21:35.432Z,50.02
2018-08-23T09:22:33.820Z,50.28
2018-08-23T09:23:34.153Z,50.22
2018-08-23T09:24:34.048Z,50
2018-08-23T09:25:34.155Z,49.48
2018-08-23T09:26:34.107Z,49.49
2018-08-23T09:27:34.248Z,49.25
2018-08-23T09:28:33.967Z,49.29
2018-08-23T09:29:34.254Z,49.9
2018-08-23T09:30:33.903Z,49.13
2018-08-23T09:31:33.873Z,49.25
2018-08-23T09:32:33.827Z,49.39
2018-08-23T09:33:33.970Z,49.06
2018-08-23T09:34:33.830Z,49.01
2018-08-23T09:35:34.008Z,48.92
2018-08-23T09:36:34.099Z,48.55
2018-08-23T09:37:34.133Z,48.14
2018-08-23T09:38:34.011Z,47.76
2018-08-23T09:39:33.930Z,48.32
2018-08-23T09:40:33.909Z,48.46
2018-08-23T09:41:34.140Z,48.58
2018-08-23T09:42:34.097Z,47.16
2018-08-23T09:43:34.353Z,45.62
2018-08-23T09:44:34.664Z,45.34
2018-08-23T09:45:33.979Z,45.56
2018-08-23T09:46:34.115Z,45.72
2018-08-23T09:47:34.010Z,44.99
2018-08-23T09:48:34.189Z,44.96
2018-08-23T09:49:33.957Z,45.15
2018-08-23T09:50:34.342Z,45.19
2018-08-23T09:51:34.020Z,45.65
2018-08-23T09:52:34.131Z,45.98
2018-08-23T09:53:34.614Z,45.74
2018-08-23T09:54:34.128Z,45.71
2018-08-23T09:55:34.135Z,45.48
2018-08-23T09:56:34.261Z,45.23
2018-08-23T09:57:34.079Z,45.3
2018-08-23T09:58:34.553Z,45.17
2018-08-23T09:59:33.865Z,45.32
2018-08-23T10:00:34.134Z,44.26
2018-08-23T10:01:34.011Z,44.03
2018-08-23T10:02:34.392Z,43.94
2018-08-23T10:03:34.055Z,44.07
2018-08-23T10:04:34.244Z,43.88
2018-08-23T10:05:34.024Z,43.98
2018-08-23T10:06:33.924Z,43.62
2018-08-23T10:07:33.902Z,43.97
2018-08-23T10:08:33.968Z,43.61
2018-08-23T10:09:34.013Z,43.82
2018-08-23T10:10:34.032Z,44.1
2018-08-23T10:11:34.562Z,44.31
2018-08-23T10:12:33.952Z,44.12
2018-08-23T10:13:33.986Z,43.74
2018-08-23T10:14:33.883Z,43.33
2018-08-23T10:15:33.976Z,43.43
2018-08-23T10:16:33.920Z,43.86
2018-08-23T10:17:34.070Z,44.12
2018-08-23T10:18:33.940Z,44.18
2018-08-23T10:19:33.979Z,44.34
2018-08-23T10:20:34.237Z,44.03
2018-08-23T10:21:34.207Z,44.05
2018-08-23T10:22:33.969Z,44.14
2018-08-23T10:23:34.015Z,44.25
2018-08-23T10:24:34.116Z,44.48
2018-08-23T10:25:33.879Z,44.66
2018-08-23T10:26:34.498Z,44.41
2018-08-23T10:27:34.005Z,44.5
2018-08-23T10:28:33.947Z,44.73
2018-08-23T10:29:33.983Z,44.55
2018-08-23T10:30:33.943Z,44.71
2018-08-23T10:31:34.376Z,44.7
2018-08-23T10:32:34.077Z,44.95
2018-08-23T10:33:34.039Z,44.95
2018-08-23T10:34:34.111Z,44.89
2018-08-23T10:35:34.099Z,44.74
2018-08-23T10:36:33.997Z,44.88
2018-08-23T10:37:33.909Z,45.18
2018-08-23T10:38:34.219Z,45.16
2018-08-23T10:39:34.034Z,44.97
2018-08-23T10:40:34.021Z,44.89
2018-08-23T10:41:34.178Z,44.94
2018-08-23T10:42:34.347Z,44.75
2018-08-23T10:43:34.008Z,44.82
2018-08-23T10:44:34.185Z,44.71
2018-08-23T10:45:34.878Z,44.98
2018-08-23T10:46:34.069Z,44.61
2018-08-23T10:47:33.926Z,44.62
2018-08-23T10:48:34.502Z,44.69
2018-08-23T10:49:34.120Z,44.46
2018-08-23T10:50:34.311Z,44.72
2018-08-23T10:51:34.043Z,44.58
2018-08-23T10:52:33.916Z,44.53
2018-08-23T10:53:34.089Z,44.27
2018-08-23T10:54:35.140Z,44.5
2018-08-23T10:55:34.029Z,44.16
2018-08-23T10:56:34.552Z,44.31
2018-08-23T10:57:34.017Z,44.08
2018-08-23T10:58:34.046Z,43.86
2018-08-23T10:59:34.144Z,44.11
2018-08-23T11:00:34.363Z,44.18
2018-08-23T11:01:34.067Z,44.1
2018-08-23T11:02:34.012Z,44.53
2018-08-23T11:03:34.104Z,44.4
2018-08-23T11:04:34.203Z,44.04
2018-08-23T11:05:34.192Z,44.11
2018-08-23T11:06:34.056Z,44.03
2018-08-23T11:07:33.993Z,44.05
2018-08-23T11:08:34.070Z,44.18
2018-08-23T11:09:34.122Z,44.14
2018-08-23T11:10:33.984Z,44.42
2018-08-23T11:11:34.133Z,44.4
2018-08-23T11:12:34.045Z,44.25
2018-08-23T11:13:34.012Z,44.19
2018-08-23T11:14:34.508Z,44.31
2018-08-23T11:15:34.025Z,44.45
2018-08-23T11:16:34.430Z,44.24
2018-08-23T11:17:34.399Z,44.11
2018-08-23T11:18:34.004Z,44.11
2018-08-23T11:19:33.973Z,44.16
2018-08-23T11:20:34.194Z,43.98
2018-08-23T11:21:33.987Z,44.14
2018-08-23T11:22:34.131Z,44.03
2018-08-23T11:23:34.335Z,43.66
2018-08-23T11:24:34.018Z,43.01
2018-08-23T11:25:34.167Z,42.94
2018-08-23T11:26:34.169Z,42.65
2018-08-23T11:27:34.112Z,42.81
2018-08-23T11:28:34.395Z,42.84
2018-08-23T11:29:34.408Z,43.36
2018-08-23T11:30:34.091Z,43.43
2018-08-23T11:31:33.998Z,43.23
2018-08-23T11:32:34.129Z,43.03
2018-08-23T11:33:34.124Z,43.03
2018-08-23T11:34:33.985Z,42.93
2018-08-23T11:35:34.137Z,42.91
2018-08-23T11:36:34.226Z,42.61
2018-08-23T11:37:34.000Z,42.27
2018-08-23T11:38:34.078Z,42.2
2018-08-23T11:39:34.130Z,42.19
2018-08-23T11:40:33.986Z,42.02
2018-08-23T11:41:33.995Z,42.17
2018-08-23T11:42:34.347Z,42.03
2018-08-23T11:43:34.024Z,42.35
2018-08-23T11:44:34.163Z,41.92
2018-08-23T11:45:34.059Z,42.13
2018-08-23T11:46:34.271Z,41.88
2018-08-23T11:47:34.195Z,42.12
2018-08-23T11:48:34.184Z,42.43
2018-08-23T11:49:34.065Z,42.24
2018-08-23T11:50:34.098Z,42.9
2018-08-23T11:51:34.246Z,41.19
2018-08-23T11:52:34.167Z,41.17
2018-08-23T11:53:35.764Z,41.4
2018-08-23T11:54:34.048Z,41.91
2018-08-23T11:55:34.027Z,41.5
2018-08-23T11:56:34.240Z,40.69
2018-08-23T11:57:34.172Z,40.45
2018-08-23T11:58:34.150Z,39.93
2018-08-23T11:59:34.034Z,40.33
2018-08-23T12:00:34.106Z,39.67
2018-08-23T12:01:34.100Z,39.03
2018-08-23T12:02:34.113Z,39.27
2018-08-23T12:03:34.111Z,38.57
2018-08-23T12:04:34.079Z,38.72
2018-08-23T12:05:34.211Z,39.16
2018-08-23T12:06:34.489Z,38.81
2018-08-23T12:07:34.174Z,38.57
2018-08-23T12:08:34.121Z,38.22
2018-08-23T12:09:34.038Z,38.33
2018-08-23T12:10:34.054Z,38.24
2018-08-23T12:11:34.237Z,38.72
2018-08-23T12:12:34.449Z,38.89
2018-08-23T12:13:34.503Z,39.15
2018-08-23T12:14:34.063Z,39.09
2018-08-23T12:15:34.663Z,38.47
2018-08-23T12:16:34.146Z,38.69
2018-08-23T12:17:34.326Z,38.17
2018-08-23T12:18:34.501Z,38.24
2018-08-23T12:19:34.079Z,38.46
2018-08-23T12:20:34.231Z,38.42
2018-08-23T12:21:34.203Z,38.28
2018-08-23T12:22:34.282Z,38.66
2018-08-23T12:23:34.235Z,38.56
2018-08-23T12:24:34.257Z,38.39
2018-08-23T12:25:34.286Z,38.59
2018-08-23T12:26:34.291Z,38.74
2018-08-23T12:27:34.138Z,38.57
2018-08-23T12:28:34.077Z,38.76
2018-08-23T12:29:35.292Z,39.02
2018-08-23T12:30:36.670Z,39.13
2018-08-23T12:31:36.189Z,38.78
2018-08-23T12:32:34.184Z,39
2018-08-23T12:33:34.750Z,38.37
2018-08-23T12:34:34.958Z,38.4
2018-08-23T12:35:34.120Z,37.7
2018-08-23T12:36:34.625Z,37.69
2018-08-23T12:37:34.409Z,37.76
2018-08-23T12:38:34.326Z,37.74
2018-08-23T12:39:34.100Z,37.99
2018-08-23T12:40:34.104Z,37.81
2018-08-23T12:41:34.143Z,36.91
2018-08-23T12:42:34.987Z,36.75
2018-08-23T12:43:34.495Z,37.14
2018-08-23T12:44:34.334Z,36.97
2018-08-23T12:45:34.569Z,36.54
2018-08-23T12:46:34.598Z,36.73
2018-08-23T12:47:34.140Z,37.64
2018-08-23T12:48:35.222Z,37.21
2018-08-23T12:49:34.338Z,37.19
2018-08-23T12:50:34.206Z,36.52
2018-08-23T12:51:34.114Z,36.86
2018-08-23T12:52:34.108Z,36.79
2018-08-23T12:53:35.366Z,36.1
2018-08-23T12:54:34.251Z,36.41
2018-08-23T12:55:34.192Z,36.05
2018-08-23T12:56:34.255Z,36.41